createdAt,value
2022-12-08T00:01:10.039Z,8.82
2022-12-08T00:03:45.345Z,6.88
2022-12-08T00:06:43.354Z,8.98
2022-12-08T00:09:25.365Z,6.30
2022-12-08T00:12:00.709Z,9.27
2022-12-08T00:14:39.217Z,7.57
2022-12-08T00:17:15.723Z,8.13
2022-12-08T00:19:50.579Z,9.43
2022-12-08T00:22:24.024Z,7.05
2022-12-08T00:24:57.698Z,8.02
2022-12-08T00:27:31.201Z,4.63
2022-12-08T00:30:05.641Z,7.60
2022-12-08T00:32:39.097Z,6.63
2022-12-08T00:35:14.024Z,7.93
2022-12-08T00:37:50.486Z,6.32
2022-12-08T00:40:26.212Z,7.40
2022-12-08T00:42:59.628Z,6.63
2022-12-08T00:45:33.045Z,7.07
2022-12-08T00:48:09.309Z,5.65
2022-12-08T00:50:44.209Z,5.90
2022-12-08T00:53:17.728Z,6.05
2022-12-08T00:55:51.139Z,6.40
2022-12-08T00:58:24.577Z,8.95
2022-12-08T01:00:58.091Z,5.75
2022-12-08T01:03:31.607Z,8.18
2022-12-08T01:06:09.150Z,6.53
2022-12-08T01:08:43.260Z,6.63
2022-12-08T01:11:19.766Z,8.18
2022-12-08T01:13:53.224Z,7.28
2022-12-08T01:16:28.813Z,6.18
2022-12-08T01:19:02.704Z,7.72
2022-12-08T01:21:37.555Z,7.95
2022-12-08T01:24:13.432Z,6.95
2022-12-08T01:26:47.583Z,10.50
2022-12-08T01:29:21.313Z,8.27
2022-12-08T01:31:54.925Z,6.93
2022-12-08T01:34:28.389Z,10.27
2022-12-08T01:37:03.346Z,5.22
2022-12-08T01:39:36.879Z,7.90
2022-12-08T01:42:21.242Z,6.10
2022-12-08T01:45:01.279Z,6.10
2022-12-08T01:47:39.509Z,4.13
2022-12-08T01:50:15.289Z,6.90
2022-12-08T01:52:54.514Z,4.60
2022-12-08T01:55:34.253Z,8.38
2022-12-08T01:58:12.920Z,8.07
2022-12-08T02:00:46.756Z,5.68
2022-12-08T02:03:25.531Z,7.97
2022-12-08T02:05:59.948Z,10.38
2022-12-08T02:08:36.216Z,7.95
2022-12-08T02:11:12.115Z,12.18
2022-12-08T02:13:47.567Z,7.63
2022-12-08T02:16:36.692Z,8.75
2022-12-08T02:19:48.527Z,9.10
2022-12-08T02:22:29.557Z,9.43
2022-12-08T02:25:13.751Z,9.70
2022-12-08T02:28:00.141Z,7.60
2022-12-08T02:30:45.301Z,9.25
2022-12-08T02:33:56.969Z,11.32
2022-12-08T02:36:38.717Z,8.25
2022-12-08T02:39:24.703Z,9.32
2022-12-08T02:42:08.252Z,8.18
2022-12-08T02:44:49.042Z,10.95
2022-12-08T02:47:25.116Z,8.82
2022-12-08T02:50:00.721Z,9.07
2022-12-08T02:52:45.037Z,10.02
2022-12-08T02:55:24.834Z,14.57
2022-12-08T02:58:14.539Z,14.40
2022-12-08T03:01:02.459Z,14.32
2022-12-08T03:03:42.983Z,11.50
2022-12-08T03:06:29.898Z,12.52
2022-12-08T03:09:11.391Z,12.68
2022-12-08T03:11:51.933Z,11.35
2022-12-08T03:14:26.307Z,15.25
2022-12-08T03:17:01.978Z,13.15
2022-12-08T03:19:39.186Z,16.65
2022-12-08T03:22:17.155Z,15.10
2022-12-08T03:24:51.492Z,11.88
2022-12-08T03:27:29.407Z,13.57
2022-12-08T03:30:03.975Z,18.30
2022-12-08T03:32:47.847Z,16.55
2022-12-08T03:35:26.106Z,15.65
2022-12-08T03:38:06.101Z,18.80
2022-12-08T03:40:40.263Z,16.05
2022-12-08T03:43:13.705Z,12.18
2022-12-08T03:45:47.273Z,16.08
2022-12-08T03:48:20.727Z,11.45
2022-12-08T03:50:54.284Z,15.13
2022-12-08T03:53:29.567Z,16.17
2022-12-08T03:56:05.695Z,15.05
2022-12-08T03:58:39.189Z,19.80
2022-12-08T04:01:13.031Z,15.80
2022-12-08T04:03:46.585Z,17.60
2022-12-08T04:06:20.595Z,15.50
2022-12-08T04:11:28.939Z,26.05
2022-12-08T04:14:02.489Z,30.23
2022-12-08T04:16:36.191Z,30.77
2022-12-08T04:19:10.200Z,35.20
2022-12-08T04:21:43.652Z,33.80
2022-12-08T04:24:18.716Z,32.53
2022-12-08T04:26:52.231Z,24.17
2022-12-08T04:29:25.866Z,20.45
2022-12-08T04:31:59.430Z,22.13
2022-12-08T04:34:33.086Z,14.48
2022-12-08T04:37:06.635Z,19.48
2022-12-08T04:39:41.673Z,14.73
2022-12-08T04:42:15.120Z,20.55
2022-12-08T04:44:48.521Z,15.95
2022-12-08T04:47:22.421Z,15.90
2022-12-08T04:49:55.903Z,15.15
2022-12-08T04:52:29.378Z,21.92
2022-12-08T04:55:04.906Z,28.83
2022-12-08T04:57:38.803Z,26.45
2022-12-08T05:00:13.790Z,24.55
2022-12-08T05:02:47.314Z,22.20
2022-12-08T05:05:20.866Z,24.95
2022-12-08T05:07:54.421Z,23.25
2022-12-08T05:10:29.371Z,15.95
2022-12-08T05:13:03.088Z,18.75
2022-12-08T05:15:36.639Z,20.08
2022-12-08T05:18:10.219Z,18.33
2022-12-08T05:20:43.637Z,15.27
2022-12-08T05:23:17.087Z,16.73
2022-12-08T05:25:51.893Z,19.52
2022-12-08T05:28:42.730Z,15.98
2022-12-08T05:31:18.501Z,18.20
2022-12-08T05:33:53.209Z,22.33
2022-12-08T05:36:26.786Z,19.02
2022-12-08T05:39:00.511Z,21.88
2022-12-08T05:41:35.595Z,22.90
2022-12-08T05:44:09.283Z,16.92
2022-12-08T05:46:42.894Z,18.50
2022-12-08T05:49:16.533Z,20.90
2022-12-08T05:51:50.194Z,20.42
2022-12-08T05:54:24.143Z,21.70
2022-12-08T05:59:32.347Z,17.45
2022-12-08T06:02:05.963Z,19.23
2022-12-08T06:04:39.488Z,17.17
2022-12-08T06:07:16.031Z,18.92
2022-12-08T06:09:49.833Z,19.23
2022-12-08T06:12:24.898Z,16.17
2022-12-08T06:14:58.361Z,19.27
2022-12-08T06:17:32.027Z,20.73
2022-12-08T06:20:07.105Z,29.98
2022-12-08T06:22:40.856Z,27.80
2022-12-08T06:25:14.650Z,21.83
2022-12-08T06:27:49.606Z,24.08
2022-12-08T06:30:23.198Z,19.42
2022-12-08T06:32:56.909Z,20.15
2022-12-08T06:35:30.500Z,20.38
2022-12-08T06:38:03.961Z,22.20
2022-12-08T06:40:37.552Z,23.55
2022-12-08T06:43:12.430Z,30.35
2022-12-08T06:45:46.018Z,20.63
2022-12-08T06:48:20.510Z,27.23
2022-12-08T06:50:54.041Z,29.60
2022-12-08T06:53:27.509Z,29.90
2022-12-08T06:56:01.180Z,29.60
2022-12-08T06:58:36.962Z,32.90
2022-12-08T07:01:12.548Z,24.33
2022-12-08T07:03:46.474Z,25.05
2022-12-08T07:06:23.098Z,23.23
2022-12-08T07:08:56.658Z,20.27
2022-12-08T07:11:30.410Z,20.80
2022-12-08T07:14:05.334Z,22.17
2022-12-08T07:16:39.620Z,24.27
2022-12-08T07:19:13.193Z,21.75
2022-12-08T07:21:46.827Z,19.38
2022-12-08T07:24:22.799Z,21.80
2022-12-08T07:26:56.303Z,29.13
2022-12-08T07:29:31.313Z,28.65
2022-12-08T07:32:04.895Z,26.55
2022-12-08T07:34:38.420Z,35.35
2022-12-08T07:37:12.149Z,32.42
2022-12-08T07:39:45.724Z,30.25
2022-12-08T07:42:19.260Z,36.20
2022-12-08T07:44:55.004Z,36.92
2022-12-08T07:47:28.569Z,35.70
2022-12-08T07:50:02.373Z,36.28
2022-12-08T07:55:10.099Z,37.10
2022-12-08T07:57:43.615Z,43.47
2022-12-08T08:00:19.443Z,59.22
2022-12-08T08:02:53.017Z,46.80
2022-12-08T08:05:26.649Z,52.40
2022-12-08T08:08:00.306Z,53.13
2022-12-08T08:10:33.923Z,53.83
2022-12-08T08:13:07.410Z,51.08
2022-12-08T08:15:42.469Z,50.67
2022-12-08T08:18:16.103Z,49.75
2022-12-08T08:20:49.649Z,44.00
2022-12-08T08:23:23.094Z,46.42
2022-12-08T08:25:56.965Z,44.08
2022-12-08T08:31:05.632Z,50.13
2022-12-08T08:33:39.145Z,52.53
2022-12-08T08:36:12.872Z,53.67
2022-12-08T08:38:46.291Z,45.42
2022-12-08T08:41:19.766Z,51.38
2022-12-08T08:43:53.221Z,50.50
2022-12-08T08:46:28.180Z,46.08
2022-12-08T08:49:02.254Z,46.13
2022-12-08T08:54:08.795Z,39.72
2022-12-08T08:56:42.337Z,42.13
2022-12-08T08:59:15.862Z,37.35
2022-12-08T09:01:50.961Z,36.03
2022-12-08T09:04:25.781Z,39.03
2022-12-08T09:06:59.624Z,35.40
2022-12-08T09:09:33.141Z,37.33
2022-12-08T09:12:07.545Z,31.52
2022-12-08T09:14:41.229Z,35.28
2022-12-08T09:17:16.275Z,36.22
2022-12-08T09:19:49.957Z,35.85
2022-12-08T09:22:23.869Z,34.92
2022-12-08T09:27:30.679Z,35.53
2022-12-08T09:30:04.901Z,33.92
2022-12-08T09:32:40.179Z,36.22
2022-12-08T09:35:13.775Z,42.40
2022-12-08T09:37:47.485Z,41.90
2022-12-08T09:40:24.028Z,46.35
2022-12-08T09:43:06.470Z,44.35
2022-12-08T09:45:40.599Z,45.28
2022-12-08T09:48:20.281Z,46.08
2022-12-08T09:50:56.547Z,44.97
2022-12-08T09:53:36.068Z,44.03
2022-12-08T09:56:16.355Z,46.70
2022-12-08T09:58:54.691Z,46.88
2022-12-08T10:01:30.392Z,44.80
2022-12-08T10:04:07.619Z,40.40
2022-12-08T10:06:48.428Z,41.70
2022-12-08T10:09:30.632Z,47.88
2022-12-08T10:12:13.808Z,33.30
2022-12-08T10:14:54.702Z,33.95
2022-12-08T10:17:34.568Z,34.25
2022-12-08T10:20:17.154Z,37.67
2022-12-08T10:22:57.383Z,37.30
2022-12-08T10:25:37.733Z,32.83
2022-12-08T10:28:11.758Z,33.85
2022-12-08T10:30:45.204Z,37.17
2022-12-08T10:33:20.885Z,30.58
2022-12-08T10:35:58.555Z,35.67
2022-12-08T10:38:34.268Z,34.85
2022-12-08T10:41:13.779Z,33.05
2022-12-08T10:43:49.557Z,33.60
2022-12-08T10:46:25.971Z,36.83
2022-12-08T10:49:13.764Z,33.95
2022-12-08T10:51:48.630Z,37.22
2022-12-08T10:54:30.350Z,38.35
2022-12-08T10:57:03.775Z,36.25
2022-12-08T10:59:37.257Z,35.97
2022-12-08T11:02:19.716Z,29.88
2022-12-08T11:05:00.589Z,36.22
2022-12-08T11:07:35.484Z,37.63
2022-12-08T11:10:20.281Z,36.47
2022-12-08T11:12:53.767Z,38.97
2022-12-08T11:15:27.421Z,42.20
2022-12-08T11:18:08.012Z,42.63
2022-12-08T11:20:42.961Z,45.95
2022-12-08T11:23:25.487Z,39.92
2022-12-08T11:26:06.375Z,35.38
2022-12-08T11:28:40.489Z,41.85
2022-12-08T11:31:23.708Z,43.00
2022-12-08T11:33:57.919Z,43.20
2022-12-08T11:36:34.891Z,42.00
2022-12-08T11:39:14.027Z,41.05
2022-12-08T11:41:47.952Z,44.63
2022-12-08T11:44:30.304Z,48.53
2022-12-08T11:47:10.018Z,46.90
2022-12-08T11:52:25.531Z,50.67
2022-12-08T11:55:07.339Z,51.47
2022-12-08T11:57:40.869Z,52.63
2022-12-08T12:00:17.727Z,53.10
2022-12-08T12:02:58.003Z,51.13
2022-12-08T12:06:08.815Z,47.83
2022-12-08T12:08:46.738Z,51.42
2022-12-08T12:11:45.796Z,58.60
2022-12-08T12:14:41.797Z,48.00
2022-12-08T12:17:33.912Z,51.47
2022-12-08T12:20:16.012Z,54.25
2022-12-08T12:22:53.287Z,51.85
2022-12-08T12:25:28.610Z,51.38
2022-12-08T12:28:06.956Z,46.88
2022-12-08T12:30:55.249Z,56.40
2022-12-08T12:33:31.402Z,52.88
2022-12-08T12:36:08.324Z,56.63
2022-12-08T12:39:04.372Z,57.88
2022-12-08T12:41:44.863Z,52.45
2022-12-08T12:44:40.325Z,56.13
2022-12-08T12:47:16.546Z,52.92
2022-12-08T12:50:37.229Z,53.08
2022-12-08T12:53:43.869Z,47.97
2022-12-08T12:56:50.367Z,45.42
2022-12-08T12:59:42.675Z,44.08
2022-12-08T13:02:26.201Z,39.28
2022-12-08T13:05:03.664Z,39.00
2022-12-08T13:07:43.856Z,37.90
2022-12-08T13:10:21.572Z,40.17
2022-12-08T13:13:17.677Z,42.88
2022-12-08T13:15:54.627Z,37.63
2022-12-08T13:18:36.509Z,35.60
2022-12-08T13:21:15.238Z,31.40
2022-12-08T13:23:50.537Z,29.05
2022-12-08T13:26:25.890Z,37.40
2022-12-08T13:29:23.865Z,40.47
2022-12-08T13:31:59.322Z,41.75
2022-12-08T13:34:39.403Z,38.15
2022-12-08T13:37:26.649Z,46.03
2022-12-08T13:40:03.931Z,41.13
2022-12-08T13:42:45.054Z,37.38
2022-12-08T13:48:44.619Z,33.25
2022-12-08T13:57:26.268Z,32.92
2022-12-08T14:00:03.053Z,35.05
2022-12-08T14:02:48.872Z,41.17
2022-12-08T14:05:47.733Z,34.05
2022-12-08T14:08:57.456Z,38.15
2022-12-08T14:11:34.759Z,45.05
2022-12-08T14:14:10.962Z,42.55
2022-12-08T14:16:49.800Z,44.13
2022-12-08T14:19:25.712Z,39.80
2022-12-08T14:22:02.519Z,40.88
2022-12-08T14:24:36.239Z,37.28
2022-12-08T14:27:13.421Z,34.63
2022-12-08T14:29:48.829Z,41.00
2022-12-08T14:32:28.801Z,44.28
2022-12-08T14:35:12.622Z,37.28
2022-12-08T14:37:49.691Z,49.55
2022-12-08T14:40:26.077Z,43.17
2022-12-08T14:43:16.406Z,44.45
2022-12-08T14:45:55.649Z,39.00
2022-12-08T14:48:42.294Z,38.53
2022-12-08T14:51:23.886Z,38.85
2022-12-08T14:54:01.387Z,37.40
2022-12-08T14:56:38.671Z,37.97
2022-12-08T14:59:15.922Z,38.55
2022-12-08T15:01:51.204Z,39.88
2022-12-08T15:04:27.628Z,37.35
2022-12-08T15:07:06.270Z,47.95
2022-12-08T15:09:43.657Z,43.90
2022-12-08T15:12:27.129Z,41.95
2022-12-08T15:15:15.226Z,46.25
2022-12-08T15:17:52.480Z,50.20
2022-12-08T15:20:35.583Z,56.20
2022-12-08T15:23:29.823Z,52.55
2022-12-08T15:26:06.578Z,57.65
2022-12-08T15:28:40.176Z,65.53
2022-12-08T15:31:13.856Z,64.35
2022-12-08T15:33:47.723Z,68.72
2022-12-08T15:36:21.174Z,71.90
2022-12-08T15:38:54.786Z,74.20
2022-12-08T15:41:29.682Z,65.63
2022-12-08T15:44:03.239Z,61.97
2022-12-08T15:46:38.121Z,61.75
2022-12-08T15:49:18.406Z,62.58
2022-12-08T15:51:57.404Z,60.67
2022-12-08T15:54:38.488Z,64.78
2022-12-08T16:00:51.929Z,66.75
2022-12-08T16:04:14.292Z,69.30
2022-12-08T16:09:20.887Z,73.15
2022-12-08T16:12:12.037Z,73.15
2022-12-08T16:15:48.480Z,72.85
2022-12-08T16:17:41.285Z,72.30
2022-12-08T16:20:17.129Z,64.88
2022-12-08T16:22:59.239Z,62.97
2022-12-08T16:26:16.320Z,75.55
2022-12-08T16:31:30.002Z,58.95
2022-12-08T16:34:03.837Z,64.57
2022-12-08T16:36:37.314Z,55.97
2022-12-08T16:39:13.914Z,55.65
2022-12-08T16:42:04.868Z,53.08
2022-12-08T16:44:42.302Z,51.15
2022-12-08T16:47:17.242Z,55.67
2022-12-08T16:49:50.648Z,52.28
2022-12-08T16:52:24.329Z,51.20
2022-12-08T16:55:00.111Z,49.90
2022-12-08T16:57:33.547Z,50.50
2022-12-08T17:00:09.615Z,47.80
2022-12-08T17:02:45.333Z,43.65
2022-12-08T17:05:21.369Z,46.95
2022-12-08T17:07:55.569Z,45.85
2022-12-08T17:10:31.763Z,46.97
2022-12-08T17:13:05.466Z,47.75
2022-12-08T17:15:41.189Z,45.05
2022-12-08T17:18:16.189Z,46.40
2022-12-08T17:20:49.659Z,50.95
2022-12-08T17:23:23.142Z,49.33
2022-12-08T17:26:01.182Z,46.85
2022-12-08T17:28:58.858Z,48.85
2022-12-08T17:31:30.227Z,44.75
2022-12-08T17:34:09.728Z,46.80
2022-12-08T17:36:43.371Z,45.92
2022-12-08T17:39:18.914Z,52.05
2022-12-08T17:41:55.902Z,54.55
2022-12-08T17:44:29.580Z,47.72
2022-12-08T17:47:04.010Z,50.90
2022-12-08T17:49:42.077Z,51.38
2022-12-08T17:52:21.497Z,45.67
2022-12-08T17:54:55.100Z,49.28
2022-12-08T17:57:28.563Z,48.47
2022-12-08T18:00:02.020Z,46.13
2022-12-08T18:02:45.340Z,54.50
2022-12-08T18:05:21.102Z,48.70
2022-12-08T18:07:54.762Z,44.90
2022-12-08T18:10:28.547Z,44.38
2022-12-08T18:13:05.678Z,46.08
2022-12-08T18:15:39.516Z,46.40
2022-12-08T18:18:13.023Z,45.95
2022-12-08T18:20:48.048Z,44.28
2022-12-08T18:23:21.488Z,47.10
2022-12-08T18:25:54.966Z,47.88
2022-12-08T18:28:28.424Z,47.17
2022-12-08T18:31:02.159Z,50.80
2022-12-08T18:33:35.675Z,44.85
2022-12-08T18:36:13.033Z,47.30
2022-12-08T18:38:46.568Z,45.90
2022-12-08T18:41:23.531Z,49.05
2022-12-08T18:43:58.280Z,44.10
2022-12-08T18:46:31.916Z,51.72
2022-12-08T18:49:05.470Z,54.45
2022-12-08T18:51:40.498Z,56.47
2022-12-08T18:54:14.476Z,59.78
2022-12-08T18:59:22.988Z,57.35
2022-12-08T19:01:57.341Z,60.45
2022-12-08T19:04:34.683Z,51.28
2022-12-08T19:07:12.544Z,51.10
2022-12-08T19:09:46.013Z,56.25
2022-12-08T19:12:19.505Z,46.22
2022-12-08T19:14:52.986Z,50.42
2022-12-08T19:17:26.965Z,42.47
2022-12-08T19:22:35.025Z,48.42
2022-12-08T19:25:09.280Z,49.22
2022-12-08T19:27:42.726Z,45.38
2022-12-08T19:30:16.943Z,51.90
2022-12-08T19:32:51.610Z,50.10
2022-12-08T19:35:25.281Z,50.67
2022-12-08T19:38:00.317Z,52.05
2022-12-08T19:40:51.234Z,57.35
2022-12-08T19:43:47.601Z,50.08
2022-12-08T19:46:21.145Z,51.20
2022-12-08T19:48:55.696Z,48.47
2022-12-08T19:51:29.331Z,46.35
2022-12-08T19:54:06.872Z,49.85
2022-12-08T19:56:40.378Z,47.83
2022-12-08T19:59:15.887Z,56.97
2022-12-08T20:01:49.731Z,52.10
2022-12-08T20:04:24.185Z,51.33
2022-12-08T20:06:58.911Z,55.42
2022-12-08T20:09:33.900Z,50.25
2022-12-08T20:12:08.359Z,47.90
2022-12-08T20:14:45.891Z,48.65
2022-12-08T20:17:19.709Z,42.90
2022-12-08T20:19:53.417Z,47.88
2022-12-08T20:22:26.907Z,48.15
2022-12-08T20:25:04.804Z,45.50
2022-12-08T20:27:38.293Z,43.38
2022-12-08T20:30:16.991Z,53.88
2022-12-08T20:32:50.743Z,47.83
2022-12-08T20:35:24.595Z,49.72
2022-12-08T20:38:00.982Z,54.40
2022-12-08T20:40:35.989Z,49.03
2022-12-08T20:43:11.531Z,53.28
2022-12-08T20:45:45.037Z,50.55
2022-12-08T20:48:19.097Z,64.65
2022-12-08T20:50:52.904Z,57.60
2022-12-08T20:53:26.478Z,57.95
2022-12-08T20:56:01.933Z,67.95
2022-12-08T20:58:37.363Z,79.00
2022-12-08T21:01:14.964Z,91.07
2022-12-08T21:03:50.513Z,75.55
2022-12-08T21:06:27.019Z,74.05
2022-12-08T21:09:01.567Z,64.90
2022-12-08T21:11:37.165Z,57.63
2022-12-08T21:14:10.837Z,64.82
2022-12-08T21:16:45.931Z,61.85
2022-12-08T21:19:20.834Z,71.97
2022-12-08T21:21:54.456Z,76.07
2022-12-08T21:24:34.233Z,65.25
2022-12-08T21:27:10.171Z,57.33
2022-12-08T21:29:44.905Z,57.75
2022-12-08T21:32:18.422Z,68.90
2022-12-08T21:34:52.087Z,53.28
2022-12-08T21:37:28.723Z,62.28
2022-12-08T21:40:02.205Z,51.38
2022-12-08T21:42:46.829Z,64.63
2022-12-08T21:45:21.972Z,56.22
2022-12-08T21:47:55.857Z,58.42
2022-12-08T21:50:29.713Z,61.85
2022-12-08T21:53:03.489Z,59.15
2022-12-08T21:55:39.788Z,56.13
2022-12-08T21:58:14.801Z,59.53
2022-12-08T22:00:48.526Z,61.38
2022-12-08T22:03:22.199Z,66.18
2022-12-08T22:08:29.707Z,66.10
2022-12-08T22:11:04.542Z,65.68
2022-12-08T22:13:40.968Z,75.18
2022-12-08T22:16:15.513Z,70.95
2022-12-08T22:18:49.362Z,67.88
2022-12-08T22:24:02.996Z,60.53
2022-12-08T22:26:36.834Z,61.17
2022-12-08T22:29:12.171Z,59.90
2022-12-08T22:31:46.249Z,62.13
2022-12-08T22:36:56.100Z,70.43
2022-12-08T22:39:34.332Z,75.50
2022-12-08T22:42:10.172Z,63.55
2022-12-08T22:44:45.322Z,77.80
2022-12-08T22:47:21.815Z,63.47
2022-12-08T22:49:55.524Z,64.00
2022-12-08T22:52:29.373Z,63.00
2022-12-08T22:57:36.524Z,59.75
2022-12-08T23:00:20.655Z,68.68
2022-12-08T23:03:48.860Z,65.05
2022-12-08T23:06:25.438Z,68.15
2022-12-08T23:09:00.942Z,66.22
2022-12-08T23:11:36.280Z,61.92
2022-12-08T23:14:10.074Z,65.82
2022-12-08T23:16:45.583Z,64.05
2022-12-08T23:19:20.971Z,65.18
2022-12-08T23:21:54.600Z,60.88
2022-12-08T23:24:28.347Z,60.95
2022-12-08T23:27:02.322Z,60.83
2022-12-08T23:32:11.719Z,61.40
2022-12-08T23:34:47.014Z,57.53
2022-12-08T23:37:21.922Z,54.33
2022-12-08T23:40:11.013Z,63.65
2022-12-08T23:42:46.885Z,52.03
2022-12-08T23:45:20.763Z,56.13
2022-12-08T23:47:56.007Z,52.72
2022-12-08T23:50:35.203Z,53.65
2022-12-08T23:53:21.732Z,47.97
2022-12-08T23:56:00.787Z,57.83
2022-12-08T23:58:35.591Z,54.97
